Time;durP1;ratioP1;P1;durP2;ratioP2;P2;SDS_P1;SDS_P2;PMS_P1;PMS_P2;Temp;Humidity;BMP_temperature;BMP_pressure;BME280_temperature;BME280_humidity;BME280_pressure;Samples;Min_cycle;Max_cycle;Signal;HPM_P1;HPM_P2
2023/05/22 00:02:01;;;;;;;7.72;4.47;;;;;;;15.32;nan;-16527.84;5013943;28;20267;-69
2023/05/22 00:04:28;;;;;;;7.65;4.72;;;;;;;14.98;nan;-17487.47;5016229;28;20309;-67
2023/05/22 00:06:54;;;;;;;8.02;4.63;;;;;;;14.95;nan;-17808.47;5012630;28;20406;-67
2023/05/22 00:09:20;;;;;;;9.20;4.53;;;;;;;15.30;nan;-17814.53;5012620;28;20654;-68
2023/05/22 00:11:46;;;;;;;8.27;5.13;;;;;;;15.11;nan;-17489.59;5012618;28;20188;-70
2023/05/22 00:14:15;;;;;;;6.65;4.43;;;;;;;14.60;nan;-17481.09;5012369;28;20200;-71
2023/05/22 00:16:40;;;;;;;11.23;5.22;;;;;;;15.39;nan;-16850.78;5012479;28;20234;-68
2023/05/22 00:19:11;;;;;;;6.78;4.25;;;;;;;15.37;nan;-17815.75;5012257;28;20184;-67
2023/05/22 00:21:37;;;;;;;7.30;4.68;;;;;;;15.10;nan;-17489.44;5012475;28;20164;-69
2023/05/22 00:24:03;;;;;;;7.00;3.97;;;;;;;15.28;nan;-17492.56;5012197;28;20195;-69
2023/05/22 00:26:29;;;;;;;8.02;4.97;;;;;;;15.39;nan;-17816.19;5012274;28;20179;-68
2023/05/22 00:28:54;;;;;;;8.45;4.50;;;;;;;15.36;nan;-16850.28;5012558;28;20180;-69
2023/05/22 00:31:19;;;;;;;6.90;4.38;;;;;;;15.14;nan;-16525.16;5012248;28;20172;-69
2023/05/22 00:33:45;;;;;;;5.80;3.88;;;;;;;15.44;nan;-17173.41;5012122;28;20249;-71
2023/05/22 00:36:10;;;;;;;6.43;4.22;;;;;;;15.22;nan;-17169.78;5012677;28;20553;-70
2023/05/22 00:38:36;;;;;;;7.68;4.40;;;;;;;15.18;nan;-16847.50;5014238;28;20230;-70
2023/05/22 00:41:03;;;;;;;7.20;4.53;;;;;;;15.53;nan;-13632.34;5018388;28;20608;-69
2023/05/22 00:43:29;;;;;;;7.25;4.38;;;;;;;15.47;nan;-14598.25;5016301;28;20635;-71
2023/05/22 00:45:55;;;;;;;7.68;4.20;;;;;;;15.27;nan;-14917.75;5013618;28;20175;-69
2023/05/22 00:48:21;;;;;;;7.57;4.90;;;;;;;15.42;nan;-15563.63;5011698;28;20186;-70
2023/05/22 00:50:48;;;;;;;7.05;4.32;;;;;;;15.46;nan;-16208.09;5011839;28;20160;-66
2023/05/22 00:53:15;;;;;;;5.57;3.88;;;;;;;15.27;nan;-17170.59;5011840;28;20215;-70
2023/05/22 00:55:42;;;;;;;8.02;4.40;;;;;;;15.47;nan;-15886.31;5011703;28;20196;-69
2023/05/22 00:58:12;;;;;;;8.43;4.80;;;;;;;15.12;nan;-16203.03;5011444;28;20259;-67
2023/05/22 01:00:38;;;;;;;6.32;3.78;;;;;;;15.13;nan;-16524.91;5010603;28;20168;-69
2023/05/22 01:03:06;;;;;;;6.55;4.00;;;;;;;15.27;nan;-15883.44;5011785;28;20167;-70
2023/05/22 01:05:33;;;;;;;6.20;4.10;;;;;;;15.17;nan;-14272.56;5014538;28;20168;-70
2023/05/22 01:07:59;;;;;;;10.20;4.55;;;;;;;15.44;nan;-15241.91;5015511;28;20175;-71
2023/05/22 01:10:26;;;;;;;9.45;4.20;;;;;;;15.46;nan;-14598.06;5015635;28;20255;-68
2023/05/22 01:13:07;;;;;;;8.45;4.15;;;;;;;15.48;nan;-14598.38;5014513;28;20181;-70
2023/05/22 01:15:38;;;;;;;6.72;4.22;;;;;;;15.53;nan;-14921.03;5020435;28;20212;-68
2023/05/22 01:18:23;;;;;;;7.72;4.20;;;;;;;15.43;nan;-14597.69;5015857;28;20605;-69
2023/05/22 01:20:53;;;;;;;8.27;4.30;;;;;;;15.46;nan;-14920.19;5015942;28;20232;-71
2023/05/22 01:23:37;;;;;;;7.65;4.15;;;;;;;15.45;nan;-14920.00;5015671;28;20176;-70
2023/05/22 01:26:02;;;;;;;6.65;4.07;;;;;;;15.45;nan;-15242.03;5015866;28;20172;-71
2023/05/22 01:28:37;;;;;;;6.65;4.60;;;;;;;15.51;nan;-14598.69;5015973;28;20172;-70
2023/05/22 01:31:16;;;;;;;7.72;3.75;;;;;;;15.28;nan;-13307.63;5015703;28;20175;-71
2023/05/22 01:33:47;;;;;;;6.20;4.25;;;;;;;15.51;nan;-12987.72;5015927;28;20578;-71
2023/05/22 01:36:21;;;;;;;6.18;4.05;;;;;;;15.45;nan;-14598.00;5015537;28;20187;-68
2023/05/22 01:38:47;;;;;;;6.85;4.32;;;;;;;15.42;nan;-15885.66;5015751;28;20240;-67
2023/05/22 01:41:13;;;;;;;7.68;4.22;;;;;;;15.39;nan;-16529.00;5015097;28;20640;-69
2023/05/22 01:43:38;;;;;;;7.57;4.20;;;;;;;15.38;nan;-16850.63;5015390;28;20183;-70
2023/05/22 01:46:05;;;;;;;6.80;3.90;;;;;;;15.35;nan;-17493.78;5014771;28;20651;-70
2023/05/22 01:48:30;;;;;;;6.97;4.07;;;;;;;15.33;nan;-17815.06;5016263;28;20175;-72
2023/05/22 01:51:11;;;;;;;4.55;3.58;;;;;;;15.37;nan;-17494.03;5015321;28;20544;-71
2023/05/22 01:53:50;;;;;;;6.22;4.18;;;;;;;15.35;nan;-17493.69;5015292;28;20246;-69
2023/05/22 01:56:29;;;;;;;8.80;4.10;;;;;;;15.29;nan;-17171.03;5015209;28;20164;-70
2023/05/22 01:59:11;;;;;;;6.78;3.80;;;;;;;15.38;nan;-17172.41;5015403;28;20623;-71
2023/05/22 02:01:38;;;;;;;6.95;3.67;;;;;;;15.36;nan;-17172.09;5015293;28;20251;-69
2023/05/22 02:04:04;;;;;;;7.35;4.28;;;;;;;15.02;nan;-17166.56;5014737;28;20173;-71
2023/05/22 02:06:32;;;;;;;5.47;3.60;;;;;;;15.23;nan;-17169.94;5014995;28;20239;-71
2023/05/22 02:08:59;;;;;;;4.95;3.70;;;;;;;14.99;nan;-16201.25;5014764;28;20172;-71
2023/05/22 02:11:27;;;;;;;6.38;3.95;;;;;;;15.26;nan;-16526.94;5015014;28;20218;-69
2023/05/22 02:13:53;;;;;;;6.88;3.80;;;;;;;15.30;nan;-15883.84;5014653;28;20192;-68
2023/05/22 02:16:20;;;;;;;6.90;4.00;;;;;;;15.19;nan;-15882.28;5014785;28;20156;-69
2023/05/22 02:18:47;;;;;;;6.88;3.58;;;;;;;15.32;nan;-16527.94;5014519;28;20571;-69
2023/05/22 02:21:12;;;;;;;5.40;3.90;;;;;;;15.33;nan;-16206.16;5014751;28;20228;-67
2023/05/22 02:23:38;;;;;;;5.95;3.97;;;;;;;15.32;nan;-16849.66;5014660;28;20190;-69
2023/05/22 02:26:04;;;;;;;5.22;3.53;;;;;;;15.10;nan;-16846.22;5014265;28;20176;-69
2023/05/22 02:28:29;;;;;;;7.00;4.63;;;;;;;15.20;nan;-16526.06;5014358;28;20226;-69
2023/05/22 02:30:55;;;;;;;5.88;3.53;;;;;;;15.33;nan;-16528.00;5014561;28;20207;-70
2023/05/22 02:33:20;;;;;;;7.47;4.53;;;;;;;15.20;nan;-16847.75;5014286;28;20183;-67
2023/05/22 02:35:45;;;;;;;5.13;3.67;;;;;;;15.31;nan;-15884.06;5014341;28;20287;-71
2023/05/22 02:38:11;;;;;;;6.88;3.95;;;;;;;15.35;nan;-14274.72;5014113;28;20172;-69
2023/05/22 02:40:37;;;;;;;7.85;3.80;;;;;;;15.09;nan;-14915.41;5014639;28;20234;-70
2023/05/22 02:43:02;;;;;;;7.07;4.10;;;;;;;15.40;nan;-15563.41;5014606;28;20168;-69
2023/05/22 02:45:28;;;;;;;6.07;3.88;;;;;;;15.28;nan;-14917.84;5014612;28;20251;-68
2023/05/22 02:47:54;;;;;;;5.30;3.75;;;;;;;15.20;nan;-15238.78;5014197;28;20563;-69
2023/05/22 02:50:19;;;;;;;8.13;4.22;;;;;;;15.28;nan;-15883.63;5015875;28;20204;-70
2023/05/22 02:52:45;;;;;;;7.60;4.43;;;;;;;15.16;nan;-16847.09;5014083;28;20180;-72
2023/05/22 02:55:10;;;;;;;7.95;4.22;;;;;;;15.24;nan;-17491.91;5014088;28;20262;-69
2023/05/22 02:57:36;;;;;;;9.23;3.97;;;;;;;15.07;nan;-16524.00;5013819;28;20187;-70
2023/05/22 03:00:02;;;;;;;5.60;3.72;;;;;;;15.13;nan;-16524.91;5014289;28;20248;-69
2023/05/22 03:02:28;;;;;;;5.72;3.58;;;;;;;15.32;nan;-13952.25;5018441;28;20270;-72
2023/05/22 03:04:54;;;;;;;6.63;4.07;;;;;;;15.35;nan;-11374.81;5014179;28;20227;-69
2023/05/22 03:07:20;;;;;;;6.43;3.80;;;;;;;15.51;nan;-7827.25;5013606;28;20188;-71
2023/05/22 03:09:45;;;;;;;7.50;4.35;;;;;;;15.52;nan;-6535.84;5013669;28;20176;-68
2023/05/22 03:12:11;;;;;;;8.10;4.45;;;;;;;15.21;nan;-7504.25;5013686;28;20551;-69
2023/05/22 03:14:36;;;;;;;5.68;3.67;;;;;;;15.22;nan;-9762.13;5013909;28;20188;-70
2023/05/22 03:17:02;;;;;;;8.50;3.80;;;;;;;15.26;nan;-11374.22;5013302;28;20191;-71
2023/05/22 03:19:28;;;;;;;8.07;4.45;;;;;;;15.58;nan;-12666.06;5011997;28;20234;-68
2023/05/22 03:21:53;;;;;;;6.90;3.92;;;;;;;15.33;nan;-10085.09;5013027;28;20174;-69
2023/05/22 03:24:19;;;;;;;6.25;3.28;;;;;;;15.64;nan;-10731.78;5015530;28;20203;-72
2023/05/22 03:26:45;;;;;;;6.30;3.78;;;;;;;14.87;nan;-10727.25;5012862;28;20262;-72
2023/05/22 03:29:10;;;;;;;5.80;3.45;;;;;;;15.75;nan;-10732.41;5013882;28;20227;-70
2023/05/22 03:31:36;;;;;;;8.32;4.30;;;;;;;15.63;nan;-11699.28;5013648;28;20215;-71
2023/05/22 03:34:01;;;;;;;5.68;4.07;;;;;;;15.68;nan;-12344.56;5013186;28;20202;-69
2023/05/22 03:36:28;;;;;;;5.95;4.07;;;;;;;15.69;nan;-13311.81;5013409;28;20501;-69
2023/05/22 03:38:53;;;;;;;7.07;4.10;;;;;;;15.75;nan;-13634.72;5013709;28;20172;-70
2023/05/22 03:41:19;;;;;;;7.90;4.03;;;;;;;15.93;nan;-14281.41;5013424;28;20182;-70
2023/05/22 03:43:45;;;;;;;5.80;4.00;;;;;;;15.74;nan;-13634.59;5013197;28;20527;-70
2023/05/22 03:46:11;;;;;;;4.72;3.50;;;;;;;15.94;nan;-13314.22;5012837;28;20262;-68
2023/05/22 03:48:37;;;;;;;6.70;3.75;;;;;;;16.12;nan;-12993.50;5012938;28;20168;-71
2023/05/22 03:51:03;;;;;;;6.78;3.90;;;;;;;16.22;nan;-11058.06;5012963;28;20172;-69
2023/05/22 03:53:28;;;;;;;5.72;4.10;;;;;;;16.35;nan;-10090.03;5013413;28;20184;-69
2023/05/22 03:55:56;;;;;;;5.45;3.55;;;;;;;16.30;nan;-6211.78;5012163;28;20218;-68
2023/05/22 03:58:24;;;;;;;5.93;3.80;;;;;;;16.49;nan;-6858.38;5010714;28;20188;-69
2023/05/22 04:00:51;;;;;;;5.90;3.75;;;;;;;16.48;nan;-7505.06;5012186;28;20259;-70
2023/05/22 04:03:18;;;;;;;6.13;3.80;;;;;;;16.38;nan;-8151.50;5013139;28;20182;-70
2023/05/22 04:05:45;;;;;;;5.55;3.75;;;;;;;16.57;nan;-7505.13;5014359;28;20270;-69
2023/05/22 04:08:10;;;;;;;6.20;3.72;;;;;;;16.85;nan;-5887.34;5011758;28;20215;-70
2023/05/22 04:10:37;;;;;;;6.07;3.88;;;;;;;16.82;nan;-2973.13;5011493;28;20199;-71
2023/05/22 04:13:03;;;;;;;7.10;3.58;;;;;;;16.92;nan;-2972.50;5018192;28;20214;-67
2023/05/22 04:15:28;;;;;;;7.20;3.47;;;;;;;17.07;nan;-377.81;5017872;28;20208;-69
2023/05/22 04:17:54;;;;;;;7.50;3.42;;;;;;;16.94;nan;-703.50;5011707;28;20246;-69
2023/05/22 04:20:21;;;;;;;6.28;3.95;;;;;;;17.03;nan;2217.38;5011133;28;20219;-67
2023/05/22 04:22:47;;;;;;;5.55;3.40;;;;;;;17.24;nan;1571.22;5009962;28;20647;-71
2023/05/22 04:25:13;;;;;;;6.22;3.63;;;;;;;17.28;nan;598.00;5011958;28;20700;-68
2023/05/22 04:27:39;;;;;;;5.70;3.80;;;;;;;17.28;nan;2545.84;5010670;28;20268;-68
2023/05/22 04:30:06;;;;;;;6.30;4.20;;;;;;;17.59;nan;1900.97;5011791;28;20175;-70
2023/05/22 04:32:31;;;;;;;7.07;3.85;;;;;;;17.62;nan;-1345.44;5011411;28;20167;-70
2023/05/22 04:34:59;;;;;;;7.75;4.53;;;;;;;17.66;nan;3851.81;5011654;28;20204;-69
2023/05/22 04:37:27;;;;;;;5.65;3.65;;;;;;;17.53;nan;3199.53;5011988;28;20171;-69
2023/05/22 04:39:57;;;;;;;6.38;4.05;;;;;;;17.20;nan;-376.38;5011150;28;20176;-68
2023/05/22 04:42:24;;;;;;;5.43;3.90;;;;;;;17.44;nan;-1022.72;5011659;28;20264;-68
2023/05/22 04:44:51;;;;;;;4.57;3.35;;;;;;;17.54;nan;-2643.91;5011476;28;20168;-69
2023/05/22 04:47:18;;;;;;;6.03;3.72;;;;;;;17.37;nan;-4266.09;5011453;28;20176;-69
2023/05/22 04:49:44;;;;;;;9.15;4.13;;;;;;;17.53;nan;276.47;5011725;28;20187;-71
2023/05/22 04:52:10;;;;;;;6.32;4.15;;;;;;;17.47;nan;1899.25;5011658;28;20651;-69
2023/05/22 04:54:36;;;;;;;8.90;4.97;;;;;;;17.22;nan;272.81;5011100;28;20333;-67
2023/05/22 04:57:03;;;;;;;8.85;4.82;;;;;;;17.66;nan;2551.88;5009026;28;20176;-69
2023/05/22 04:59:30;;;;;;;6.95;4.55;;;;;;;17.42;nan;3522.63;5010394;28;20183;-67
2023/05/22 05:01:55;;;;;;;5.90;4.05;;;;;;;17.68;nan;9383.06;5010876;28;20172;-67
2023/05/22 05:04:21;;;;;;;13.20;4.55;;;;;;;17.95;nan;11997.53;5011277;28;20242;-67
2023/05/22 05:06:46;;;;;;;7.93;4.43;;;;;;;18.51;nan;20837.38;5011199;28;20290;-69
2023/05/22 05:09:12;;;;;;;8.65;4.65;;;;;;;18.52;nan;29355.81;5011841;28;20171;-73
2023/05/22 05:11:37;;;;;;;7.05;4.68;;;;;;;18.47;nan;32962.84;5018551;28;20183;-68
2023/05/22 05:14:03;;;;;;;7.47;4.97;;;;;;;18.43;nan;31975.34;5011130;28;20200;-69
2023/05/22 05:16:28;;;;;;;7.35;4.70;;;;;;;18.28;nan;20826.59;5011124;28;20302;-67
2023/05/22 05:18:54;;;;;;;9.10;4.85;;;;;;;18.33;nan;23774.25;5011331;28;20245;-67
2023/05/22 05:21:20;;;;;;;12.25;4.70;;;;;;;18.04;nan;20815.78;5011321;28;20767;-68
2023/05/22 05:23:46;;;;;;;9.88;5.55;;;;;;;17.97;nan;20812.81;5011401;28;20551;-67
2023/05/22 05:26:12;;;;;;;6.97;4.45;;;;;;;17.92;nan;27354.19;5011097;28;20202;-71
2023/05/22 05:28:37;;;;;;;7.30;4.70;;;;;;;17.70;nan;25050.72;5011188;28;20699;-69
2023/05/22 05:31:03;;;;;;;7.85;4.32;;;;;;;18.17;nan;23765.88;5012883;28;20683;-69
2023/05/22 05:33:28;;;;;;;7.47;3.97;;;;;;;18.00;nan;19179.78;5018620;28;20180;-70
2023/05/22 05:35:54;;;;;;;8.20;4.82;;;;;;;18.40;nan;23122.78;5011308;28;20295;-69
2023/05/22 05:38:19;;;;;;;8.85;4.78;;;;;;;18.63;nan;20842.66;5010901;28;20251;-69
2023/05/22 05:40:45;;;;;;;8.32;4.82;;;;;;;18.48;nan;29025.44;5016027;28;20255;-71
2023/05/22 05:43:13;;;;;;;8.02;4.28;;;;;;;18.90;nan;26753.19;5011877;28;20626;-68
2023/05/22 05:45:39;;;;;;;12.65;4.88;;;;;;;18.73;nan;31337.25;5016921;28;20689;-69
2023/05/22 05:48:05;;;;;;;8.05;4.88;;;;;;;18.80;nan;31341.69;5015757;28;20210;-68
2023/05/22 05:50:31;;;;;;;9.68;5.00;;;;;;;18.98;nan;26757.63;4995045;28;20172;-69
2023/05/22 05:52:56;;;;;;;9.80;4.97;;;;;;;19.05;nan;27089.59;5015291;28;20658;-71
2023/05/22 05:55:22;;;;;;;8.43;4.97;;;;;;;19.49;nan;25144.72;5015098;28;20211;-67
2023/05/22 05:57:47;;;;;;;12.60;5.13;;;;;;;19.46;nan;19569.63;5019007;28;20259;-68
2023/05/22 06:00:13;;;;;;;8.40;4.93;;;;;;;19.86;nan;45314.22;5018847;28;20191;-61
2023/05/22 06:02:38;;;;;;;8.05;4.18;;;;;;;19.74;nan;50036.41;5015066;28;20621;-64
2023/05/22 06:05:04;;;;;;;10.30;4.65;;;;;;;19.70;nan;50381.41;5018811;28;20445;-60
2023/05/22 06:07:30;;;;;;;8.07;4.72;;;;;;;19.99;nan;52024.38;5018498;28;20184;-64
2023/05/22 06:09:57;;;;;;;15.00;4.90;;;;;;;19.87;nan;55854.63;5021112;28;20184;-61
2023/05/22 06:12:23;;;;;;;8.23;4.68;;;;;;;20.09;nan;55333.69;5023966;28;20191;-61
2023/05/22 06:14:48;;;;;;;6.68;4.00;;;;;;;19.98;nan;56873.31;5013630;28;20253;-63
2023/05/22 06:17:14;;;;;;;8.50;4.75;;;;;;;20.63;nan;58303.31;5018758;28;20191;-63
2023/05/22 06:19:41;;;;;;;9.88;5.05;;;;;;;20.83;nan;57696.53;5016077;28;20699;-61
2023/05/22 06:22:06;;;;;;;7.93;5.00;;;;;;;20.77;nan;57715.50;5019173;28;20198;-61
2023/05/22 06:24:32;;;;;;;6.90;4.40;;;;;;;20.77;nan;58797.31;5019111;28;20191;-64
2023/05/22 06:26:58;;;;;;;9.07;5.00;;;;;;;21.13;nan;59444.53;5014386;28;20180;-61
2023/05/22 06:29:23;;;;;;;11.10;4.57;;;;;;;21.14;nan;59920.84;5017538;28;20687;-63
2023/05/22 06:31:49;;;;;;;6.78;4.45;;;;;;;21.59;nan;60344.28;5020901;28;20175;-60
2023/05/22 06:34:14;;;;;;;7.07;4.07;;;;;;;22.23;nan;60742.19;5019387;28;20222;-63
2023/05/22 06:36:41;;;;;;;8.63;4.15;;;;;;;22.51;nan;61345.16;5019860;28;20184;-62
2023/05/22 06:39:07;;;;;;;7.20;4.20;;;;;;;22.42;nan;61424.66;5020522;28;20274;-61
2023/05/22 06:41:34;;;;;;;9.38;4.10;;;;;;;22.25;nan;61439.31;5018282;28;20246;-64
2023/05/22 06:44:01;;;;;;;7.70;4.00;;;;;;;22.18;nan;61418.41;5012021;28;20191;-62
2023/05/22 06:46:26;;;;;;;7.45;4.30;;;;;;;21.94;nan;61277.41;5013138;28;20183;-65
2023/05/22 06:48:53;;;;;;;8.02;3.97;;;;;;;21.99;nan;61595.25;5020048;28;20183;-62
2023/05/22 06:51:19;;;;;;;7.40;3.95;;;;;;;21.95;nan;61450.25;5015399;28;20567;-63
2023/05/22 06:53:45;;;;;;;7.97;4.43;;;;;;;22.30;nan;61497.00;5013099;28;20176;-61
2023/05/22 06:56:10;;;;;;;6.65;4.10;;;;;;;22.64;nan;61771.31;5013677;28;20183;-62
2023/05/22 06:58:35;;;;;;;6.13;4.13;;;;;;;22.10;nan;61646.19;5021347;28;20203;-62
2023/05/22 07:01:01;;;;;;;7.35;3.90;;;;;;;22.34;nan;61751.44;5017653;28;20184;-63
2023/05/22 07:03:26;;;;;;;6.22;3.88;;;;;;;22.56;nan;61762.25;5014816;28;20610;-62
2023/05/22 07:05:56;;;;;;;6.63;3.90;;;;;;;22.70;nan;61827.66;5016525;28;20172;-60
2023/05/22 07:08:22;;;;;;;6.13;3.78;;;;;;;22.52;nan;61841.59;5013645;28;20180;-62
2023/05/22 07:10:47;;;;;;;8.90;4.65;;;;;;;22.33;nan;61835.69;5015381;28;20244;-61
2023/05/22 07:13:13;;;;;;;9.18;4.35;;;;;;;22.85;nan;61879.09;5017830;28;20212;-64
2023/05/22 07:15:38;;;;;;;7.47;4.05;;;;;;;23.05;nan;62137.88;5015433;28;20890;-60
2023/05/22 07:18:04;;;;;;;4.97;3.20;;;;;;;23.19;nan;62075.63;5018643;28;20192;-61
2023/05/22 07:20:29;;;;;;;5.60;3.63;;;;;;;23.49;nan;62130.13;5019707;28;20270;-60
2023/05/22 07:22:57;;;;;;;4.97;3.20;;;;;;;24.18;nan;62210.84;5016009;28;20180;-62
2023/05/22 07:25:22;;;;;;;7.00;3.55;;;;;;;24.39;nan;62260.91;5013057;28;20194;-62
2023/05/22 07:27:47;;;;;;;6.10;3.28;;;;;;;24.83;nan;62305.31;5017879;28;20571;-62
2023/05/22 07:30:13;;;;;;;7.53;3.95;;;;;;;24.68;nan;62355.59;5012528;28;20187;-62
2023/05/22 07:32:39;;;;;;;6.00;3.47;;;;;;;24.85;nan;62327.94;5014914;28;20221;-63
2023/05/22 07:35:06;;;;;;;5.57;3.13;;;;;;;24.70;nan;62363.66;5017307;28;20682;-65
2023/05/22 07:37:31;;;;;;;4.82;3.45;;;;;;;24.88;nan;62363.31;5014686;28;20175;-63
2023/05/22 07:39:57;;;;;;;5.63;3.25;;;;;;;24.62;nan;62336.22;5012466;28;20218;-62
2023/05/22 07:42:24;;;;;;;5.10;3.00;;;;;;;24.72;nan;62341.84;5012881;28;20172;-62
2023/05/22 07:44:50;;;;;;;6.25;3.00;;;;;;;24.97;nan;62368.38;5012270;28;20184;-63
2023/05/22 07:47:15;;;;;;;4.55;3.20;;;;;;;24.96;nan;62396.00;5010897;28;20180;-63
2023/05/22 07:49:41;;;;;;;4.93;3.25;;;;;;;24.70;nan;62373.53;5011852;28;20646;-65
2023/05/22 07:52:07;;;;;;;4.82;3.25;;;;;;;25.09;nan;62363.22;5012092;28;20168;-64
2023/05/22 07:54:32;;;;;;;7.15;3.22;;;;;;;25.38;nan;62471.66;5011754;28;20203;-62
2023/05/22 07:57:01;;;;;;;4.43;3.25;;;;;;;25.86;nan;62516.13;5016995;28;20188;-63
2023/05/22 07:59:27;;;;;;;5.28;2.83;;;;;;;25.57;nan;62501.28;5012187;28;20184;-62
2023/05/22 08:01:52;;;;;;;4.07;2.97;;;;;;;25.81;nan;62523.50;5012407;28;20183;-61
2023/05/22 08:04:18;;;;;;;6.70;3.17;;;;;;;25.41;nan;62480.31;5012186;28;20180;-61
2023/05/22 08:06:43;;;;;;;6.82;3.20;;;;;;;25.32;nan;62449.66;5012232;28;20254;-63
2023/05/22 08:09:09;;;;;;;5.07;3.38;;;;;;;25.65;nan;62507.22;5012091;28;20180;-60
2023/05/22 08:11:36;;;;;;;5.00;3.00;;;;;;;26.21;nan;62539.34;5011377;28;20184;-62
2023/05/22 08:14:01;;;;;;;4.45;3.17;;;;;;;26.34;nan;62599.34;5011675;28;20172;-64
2023/05/22 08:16:27;;;;;;;4.85;3.20;;;;;;;26.57;nan;62619.28;5012531;28;20176;-66
2023/05/22 08:18:52;;;;;;;5.63;3.08;;;;;;;26.58;nan;62589.56;5012381;28;20176;-61
2023/05/22 08:21:18;;;;;;;4.63;3.03;;;;;;;26.42;nan;62602.09;5012278;28;20227;-63
2023/05/22 08:23:43;;;;;;;5.32;3.17;;;;;;;26.07;nan;62557.34;5012180;28;20244;-64
2023/05/22 08:26:09;;;;;;;6.82;3.30;;;;;;;26.20;nan;62593.75;5011540;28;20178;-62
2023/05/22 08:28:35;;;;;;;4.93;3.28;;;;;;;26.21;nan;62552.44;5011950;28;20166;-62
2023/05/22 08:31:01;;;;;;;4.18;2.97;;;;;;;26.44;nan;62649.53;5012260;28;20223;-64
2023/05/22 08:33:27;;;;;;;5.75;3.08;;;;;;;26.55;nan;62603.88;5011810;28;20172;-64
2023/05/22 08:35:52;;;;;;;6.00;3.45;;;;;;;26.51;nan;62599.31;5010870;28;20592;-62
2023/05/22 08:38:17;;;;;;;5.00;3.13;;;;;;;26.62;nan;62633.47;5011293;28;20217;-63
2023/05/22 08:40:46;;;;;;;5.22;2.97;;;;;;;26.00;nan;62515.84;5011333;28;20310;-61
2023/05/22 08:43:12;;;;;;;5.63;3.22;;;;;;;25.50;nan;62483.34;5013404;28;20259;-65
2023/05/22 08:45:41;;;;;;;4.68;2.83;;;;;;;25.00;nan;62421.50;5016936;28;20180;-65
2023/05/22 08:48:11;;;;;;;5.45;3.25;;;;;;;24.97;nan;62410.22;5011600;28;20190;-65
2023/05/22 08:50:41;;;;;;;6.10;3.60;;;;;;;25.25;nan;62535.84;5013454;28;20179;-64
2023/05/22 08:53:10;;;;;;;4.32;2.78;;;;;;;25.38;nan;62411.47;5017601;28;20271;-63
2023/05/22 08:55:36;;;;;;;4.15;2.83;;;;;;;25.24;nan;62424.84;5011180;28;20196;-64
2023/05/22 08:58:02;;;;;;;3.88;2.60;;;;;;;25.29;nan;62437.81;5011975;28;20599;-67
2023/05/22 09:00:29;;;;;;;4.15;2.60;;;;;;;25.65;nan;62483.66;5015702;28;20210;-64
2023/05/22 09:02:54;;;;;;;4.97;2.85;;;;;;;24.68;nan;62475.81;5011667;28;20227;-63
2023/05/22 09:05:20;;;;;;;5.88;2.80;;;;;;;24.76;nan;62364.72;5016194;28;20284;-62
2023/05/22 09:07:47;;;;;;;4.25;3.05;;;;;;;24.63;nan;62387.03;5011562;28;20426;-61
2023/05/22 09:10:13;;;;;;;5.03;2.97;;;;;;;24.63;nan;62345.78;5011069;28;20218;-63
2023/05/22 09:13:08;;;;;;;3.80;3.10;;;;;;;24.72;nan;62347.06;5011334;28;20360;-62
2023/05/22 09:15:35;;;;;;;6.10;3.00;;;;;;;24.63;nan;62363.50;5010352;28;20204;-62
2023/05/22 09:18:02;;;;;;;7.30;3.00;;;;;;;24.86;nan;62339.53;5011614;28;20690;-60
2023/05/22 09:20:28;;;;;;;4.07;2.75;;;;;;;24.93;nan;62410.88;5011012;28;20226;-62
2023/05/22 09:22:53;;;;;;;3.83;2.72;;;;;;;24.23;nan;62310.53;5010674;28;20570;-62
2023/05/22 09:25:20;;;;;;;6.55;3.03;;;;;;;24.12;nan;62277.66;5012084;28;20179;-63
2023/05/22 09:27:47;;;;;;;3.35;2.72;;;;;;;24.26;nan;62289.91;5015219;28;20176;-63
2023/05/22 09:30:19;;;;;;;4.65;3.00;;;;;;;24.20;nan;62370.38;5015248;28;20180;-63
2023/05/22 09:32:47;;;;;;;6.20;3.40;;;;;;;24.45;nan;62333.06;5015144;28;20847;-60
2023/05/22 09:35:13;;;;;;;8.00;2.97;;;;;;;24.67;nan;62343.97;5014531;28;20696;-61
2023/05/22 09:37:39;;;;;;;5.65;2.70;;;;;;;25.01;nan;62385.47;5014056;28;20176;-65
2023/05/22 09:40:06;;;;;;;3.90;2.65;;;;;;;25.18;nan;62415.34;5014824;28;20263;-62
2023/05/22 09:42:35;;;;;;;3.88;2.38;;;;;;;25.43;nan;62419.81;5014998;28;20234;-62
2023/05/22 09:45:05;;;;;;;5.68;2.63;;;;;;;25.17;nan;62453.44;5014702;28;20203;-62
2023/05/22 09:47:32;;;;;;;5.93;2.90;;;;;;;25.60;nan;62481.13;5014727;28;20168;-63
2023/05/22 09:50:00;;;;;;;4.88;2.70;;;;;;;24.42;nan;62264.31;5014641;28;20776;-62
2023/05/22 09:52:33;;;;;;;5.57;2.65;;;;;;;24.18;nan;62310.63;5015077;28;20234;-64
2023/05/22 09:55:03;;;;;;;4.50;2.63;;;;;;;25.08;nan;62420.19;5014161;28;20207;-63
2023/05/22 09:57:32;;;;;;;3.70;2.63;;;;;;;25.48;nan;62433.34;5014871;28;20608;-61
2023/05/22 09:59:58;;;;;;;3.90;2.50;;;;;;;25.50;nan;62559.25;5014649;28;20715;-61
2023/05/22 10:02:25;;;;;;;7.07;3.05;;;;;;;26.13;nan;62535.38;5013520;28;20168;-64
2023/05/22 10:04:52;;;;;;;5.50;3.00;;;;;;;25.91;nan;62521.25;5015009;28;20176;-65
2023/05/22 10:07:23;;;;;;;2.95;2.50;;;;;;;25.95;nan;62604.41;5014693;28;20642;-61
2023/05/22 10:10:00;;;;;;;4.95;2.78;;;;;;;26.09;nan;62577.97;5012859;28;20191;-64
2023/05/22 10:12:28;;;;;;;5.00;3.50;;;;;;;26.35;nan;62582.16;5014917;28;20824;-60
2023/05/22 10:14:54;;;;;;;8.40;2.70;;;;;;;26.22;nan;62546.28;5014172;28;20341;-62
2023/05/22 10:17:20;;;;;;;5.82;2.83;;;;;;;26.79;nan;62637.19;5014137;28;20160;-62
2023/05/22 10:19:46;;;;;;;3.20;2.45;;;;;;;27.01;nan;62690.72;5014633;28;20717;-62
2023/05/22 10:22:19;;;;;;;3.28;2.53;;;;;;;26.57;nan;62779.22;5014273;28;20175;-61
2023/05/22 10:24:46;;;;;;;4.40;2.85;;;;;;;26.02;nan;62549.56;5013812;28;20646;-63
2023/05/22 10:27:12;;;;;;;4.45;2.92;;;;;;;25.86;nan;62541.72;5014177;28;20171;-65
2023/05/22 10:29:51;;;;;;;5.43;2.72;;;;;;;25.96;nan;62527.00;5013538;28;20219;-63
2023/05/22 10:32:32;;;;;;;3.58;2.45;;;;;;;26.02;nan;62539.09;5014566;28;20202;-62
2023/05/22 10:35:06;;;;;;;4.18;2.78;;;;;;;25.84;nan;62513.25;5014292;28;20721;-62
2023/05/22 10:37:34;;;;;;;5.13;2.65;;;;;;;26.21;nan;62507.91;5014387;28;20659;-63
2023/05/22 10:40:07;;;;;;;4.50;2.70;;;;;;;26.32;nan;62578.69;5013058;28;20199;-61
2023/05/22 10:42:33;;;;;;;3.97;2.67;;;;;;;26.13;nan;62564.78;5014703;28;20172;-61
2023/05/22 10:45:03;;;;;;;4.07;2.60;;;;;;;25.94;nan;62516.84;5014457;28;20175;-61
2023/05/22 10:47:31;;;;;;;3.78;2.83;;;;;;;26.01;nan;62574.63;5014110;28;20235;-60
2023/05/22 10:50:08;;;;;;;4.57;3.10;;;;;;;26.48;nan;62580.72;5014535;28;20175;-64
2023/05/22 10:52:38;;;;;;;3.35;2.58;;;;;;;26.89;nan;62661.22;5013886;28;20268;-62
2023/05/22 10:55:10;;;;;;;3.65;2.40;;;;;;;27.14;nan;62668.31;5013120;28;20290;-62
2023/05/22 10:57:39;;;;;;;7.60;2.80;;;;;;;27.28;nan;62707.97;5018356;28;20677;-60
2023/05/22 11:00:11;;;;;;;8.23;2.78;;;;;;;27.45;nan;62721.63;5030933;28;20187;-63
2023/05/22 11:02:46;;;;;;;4.18;2.83;;;;;;;27.10;nan;62858.47;5033031;28;20179;-66
2023/05/22 11:05:17;;;;;;;4.35;2.72;;;;;;;27.46;nan;62735.91;5033248;28;20552;-64
2023/05/22 11:07:43;;;;;;;4.38;2.70;;;;;;;27.24;nan;62709.19;5033469;28;20175;-61
2023/05/22 11:10:08;;;;;;;4.55;3.17;;;;;;;27.01;nan;62677.59;5030977;28;20648;-63
2023/05/22 11:12:34;;;;;;;5.28;2.55;;;;;;;27.31;nan;62721.34;5012972;28;20713;-65
2023/05/22 11:15:07;;;;;;;3.13;2.33;;;;;;;27.58;nan;62770.69;5012142;28;20678;-64
2023/05/22 11:17:38;;;;;;;3.10;2.60;;;;;;;27.78;nan;62758.94;5012563;28;20772;-62
2023/05/22 11:20:21;;;;;;;4.78;2.80;;;;;;;27.99;nan;62801.41;5013415;28;20211;-62
2023/05/22 11:23:02;;;;;;;3.42;2.25;;;;;;;27.97;nan;62794.44;5012968;28;20554;-63
2023/05/22 11:25:28;;;;;;;6.32;2.67;;;;;;;27.51;nan;62767.94;5012710;28;20179;-64
2023/05/22 11:27:54;;;;;;;5.43;2.55;;;;;;;27.21;nan;62679.53;5012677;28;20688;-60
2023/05/22 11:30:24;;;;;;;6.95;2.80;;;;;;;27.40;nan;62694.91;5012915;28;20226;-62
2023/05/22 11:32:51;;;;;;;5.53;2.42;;;;;;;26.95;nan;62667.53;5013136;28;20174;-61
2023/05/22 11:35:18;;;;;;;3.67;2.47;;;;;;;26.26;nan;62577.09;5012681;28;20211;-62
2023/05/22 11:37:44;;;;;;;3.40;2.55;;;;;;;25.98;nan;62727.78;5019690;28;20186;-63
2023/05/22 11:40:13;;;;;;;4.65;2.55;;;;;;;25.47;nan;62481.97;5012720;28;20188;-62
2023/05/22 11:42:39;;;;;;;5.28;2.70;;;;;;;25.42;nan;62445.41;5017446;28;20278;-61
2023/05/22 11:45:05;;;;;;;5.80;2.60;;;;;;;25.19;nan;62419.13;5014427;28;20270;-63
2023/05/22 11:47:31;;;;;;;3.53;2.30;;;;;;;24.41;nan;62325.88;5013029;28;20184;-66
2023/05/22 11:49:57;;;;;;;4.70;3.38;;;;;;;21.85;nan;62203.19;5014782;28;20715;-76